createdAt,value
2023-01-09T00:00:32.227Z,2.10
2023-01-09T00:03:01.712Z,2.17
2023-01-09T00:05:31.134Z,1.83
2023-01-09T00:08:00.662Z,2.00
2023-01-09T00:10:30.173Z,2.17
2023-01-09T00:13:02.340Z,1.70
2023-01-09T00:15:31.773Z,2.38
2023-01-09T00:18:01.200Z,2.37
2023-01-09T00:20:31.727Z,2.40
2023-01-09T00:23:03.327Z,2.00
2023-01-09T00:25:33.589Z,2.20
2023-01-09T00:28:05.637Z,2.70
2023-01-09T00:30:35.209Z,2.33
2023-01-09T00:33:05.686Z,2.63
2023-01-09T00:35:35.430Z,2.20
2023-01-09T00:38:05.437Z,2.20
2023-01-09T00:40:34.850Z,1.90
2023-01-09T00:43:06.875Z,2.03
2023-01-09T00:45:36.299Z,2.05
2023-01-09T00:48:12.616Z,1.90
2023-01-09T00:50:43.147Z,1.60
2023-01-09T00:53:16.639Z,1.57
2023-01-09T00:55:46.055Z,1.97
2023-01-09T00:58:18.212Z,1.60
2023-01-09T01:00:47.908Z,1.83
2023-01-09T01:03:17.392Z,1.73
2023-01-09T01:05:59.291Z,1.70
2023-01-09T01:08:28.726Z,1.53
2023-01-09T01:10:58.121Z,1.70
2023-01-09T01:13:30.139Z,1.87
2023-01-09T01:15:59.601Z,1.85
2023-01-09T01:18:29.030Z,1.70
2023-01-09T01:20:58.549Z,1.70
2023-01-09T01:23:28.022Z,1.40
2023-01-09T01:25:57.407Z,1.60
2023-01-09T01:28:26.777Z,1.80
2023-01-09T01:30:58.863Z,1.50
2023-01-09T01:33:28.265Z,1.33
2023-01-09T01:36:04.210Z,1.33
2023-01-09T01:38:34.111Z,1.70
2023-01-09T01:41:04.226Z,1.67
2023-01-09T01:43:55.184Z,1.70
2023-01-09T01:46:27.203Z,1.73
2023-01-09T01:49:02.180Z,1.30
2023-01-09T01:51:34.287Z,1.60
2023-01-09T01:54:09.333Z,1.35
2023-01-09T01:56:43.105Z,1.57
2023-01-09T01:59:18.665Z,1.60
2023-01-09T02:01:54.874Z,1.20
2023-01-09T02:04:24.475Z,1.40
2023-01-09T02:06:56.799Z,1.40
2023-01-09T02:09:26.976Z,1.48
2023-01-09T02:12:00.811Z,1.17
2023-01-09T02:14:33.509Z,1.73
2023-01-09T02:20:16.866Z,1.53
2023-01-09T02:23:01.322Z,1.57
2023-01-09T02:25:53.634Z,1.43
2023-01-09T02:28:47.270Z,1.92
2023-01-09T02:31:25.508Z,1.30
2023-01-09T02:34:04.021Z,1.37
2023-01-09T02:36:41.663Z,1.70
2023-01-09T02:39:24.918Z,1.43
2023-01-09T02:42:02.236Z,1.90
2023-01-09T02:44:33.989Z,1.40
2023-01-09T02:47:08.817Z,1.53
2023-01-09T02:49:41.204Z,1.57
2023-01-09T02:52:25.133Z,1.50
2023-01-09T02:55:03.759Z,1.17
2023-01-09T02:57:48.671Z,1.70
2023-01-09T03:00:25.349Z,1.30
2023-01-09T03:03:04.553Z,1.47
2023-01-09T03:05:42.285Z,1.33
2023-01-09T03:08:17.493Z,1.63
2023-01-09T03:10:55.401Z,1.10
2023-01-09T03:13:28.584Z,1.60
2023-01-09T03:16:00.667Z,1.60
2023-01-09T03:18:35.251Z,2.00
2023-01-09T03:21:05.544Z,1.47
2023-01-09T03:23:48.688Z,1.50
2023-01-09T03:26:18.308Z,2.00
2023-01-09T03:28:48.022Z,1.83
2023-01-09T03:31:17.878Z,1.60
2023-01-09T03:33:49.949Z,1.50
2023-01-09T03:36:21.578Z,1.40
2023-01-09T03:38:51.570Z,1.80
2023-01-09T03:41:22.042Z,1.70
2023-01-09T03:43:51.545Z,1.70
2023-01-09T03:46:21.022Z,1.50
2023-01-09T03:48:53.044Z,1.70
2023-01-09T03:51:22.484Z,1.40
2023-01-09T03:53:51.955Z,1.60
2023-01-09T03:56:21.319Z,1.30
2023-01-09T03:58:52.986Z,1.43
2023-01-09T04:01:22.437Z,1.40
2023-01-09T04:03:54.613Z,1.47
2023-01-09T04:06:24.061Z,1.50
2023-01-09T04:08:53.475Z,1.40
2023-01-09T04:11:22.827Z,1.40
2023-01-09T04:13:52.218Z,1.67
2023-01-09T04:16:21.806Z,2.03
2023-01-09T04:18:53.891Z,1.40
2023-01-09T04:21:23.346Z,1.90
2023-01-09T04:23:52.820Z,1.97
2023-01-09T04:26:22.317Z,1.70
2023-01-09T04:28:51.767Z,1.33
2023-01-09T04:31:21.285Z,2.00
2023-01-09T04:33:50.755Z,1.53
2023-01-09T04:36:22.778Z,1.50
2023-01-09T04:38:52.260Z,1.30
2023-01-09T04:41:34.047Z,1.27
2023-01-09T04:44:03.508Z,1.33
2023-01-09T04:46:32.934Z,1.20
2023-01-09T04:49:02.364Z,1.50
2023-01-09T04:51:34.510Z,1.37
2023-01-09T04:54:04.086Z,1.13
2023-01-09T04:56:33.527Z,1.47
2023-01-09T04:59:02.973Z,0.87
2023-01-09T05:01:32.484Z,1.07
2023-01-09T05:04:02.054Z,1.13
2023-01-09T05:06:34.427Z,0.77
2023-01-09T05:09:04.076Z,1.05
2023-01-09T05:11:33.514Z,0.70
2023-01-09T05:14:03.041Z,1.13
2023-01-09T05:16:32.568Z,0.70
2023-01-09T05:19:02.022Z,0.77
2023-01-09T05:21:34.005Z,0.43
2023-01-09T05:24:03.383Z,0.90
2023-01-09T05:26:32.812Z,0.70
2023-01-09T05:29:02.178Z,0.50
2023-01-09T05:31:31.640Z,0.77
2023-01-09T05:34:01.339Z,0.50
2023-01-09T05:36:30.921Z,0.70
2023-01-09T05:39:03.430Z,0.70
2023-01-09T05:41:32.840Z,0.73
2023-01-09T05:44:02.264Z,1.03
2023-01-09T05:46:31.679Z,1.20
2023-01-09T05:49:01.103Z,1.40
2023-01-09T05:51:31.888Z,1.90
2023-01-09T05:54:05.471Z,1.60
2023-01-09T05:56:34.986Z,1.63
2023-01-09T05:59:04.513Z,1.70
2023-01-09T06:01:34.030Z,1.70
2023-01-09T06:04:03.616Z,1.77
2023-01-09T06:06:33.033Z,1.93
2023-01-09T06:09:04.993Z,1.90
2023-01-09T06:11:35.694Z,1.75
2023-01-09T06:14:05.689Z,1.97
2023-01-09T06:16:35.078Z,2.03
2023-01-09T06:19:05.848Z,2.27
2023-01-09T06:21:35.273Z,1.83
2023-01-09T06:24:08.129Z,1.90
2023-01-09T06:26:37.643Z,2.07
2023-01-09T06:29:08.160Z,2.43
2023-01-09T06:31:37.804Z,2.43
2023-01-09T06:34:07.322Z,2.30
2023-01-09T06:36:36.880Z,2.73
2023-01-09T06:39:08.929Z,2.83
2023-01-09T06:41:38.334Z,3.15
2023-01-09T06:44:07.807Z,3.03
2023-01-09T06:46:37.167Z,3.30
2023-01-09T06:49:07.355Z,3.23
2023-01-09T06:51:37.693Z,3.30
2023-01-09T06:54:09.773Z,3.47
2023-01-09T06:56:39.194Z,3.35
2023-01-09T06:59:08.557Z,3.33
2023-01-09T07:01:39.617Z,3.40
2023-01-09T07:04:10.221Z,3.63
2023-01-09T07:06:40.627Z,3.47
2023-01-09T07:09:13.502Z,4.00
2023-01-09T07:11:43.024Z,4.10
2023-01-09T07:14:12.494Z,4.20
2023-01-09T07:16:41.874Z,4.30
2023-01-09T07:19:11.307Z,3.97
2023-01-09T07:21:40.721Z,4.33
2023-01-09T07:24:12.800Z,4.50
2023-01-09T07:26:43.398Z,4.57
2023-01-09T07:29:13.139Z,4.47
2023-01-09T07:31:42.602Z,4.17
2023-01-09T07:34:12.051Z,4.47
2023-01-09T07:36:41.480Z,5.80
2023-01-09T07:39:13.698Z,3.77
2023-01-09T07:41:43.341Z,4.28
2023-01-09T07:44:12.883Z,4.43
2023-01-09T07:46:42.612Z,4.23
2023-01-09T07:49:12.161Z,5.63
2023-01-09T07:51:43.277Z,4.60
2023-01-09T07:54:15.346Z,5.20
2023-01-09T07:56:44.786Z,4.32
2023-01-09T07:59:14.566Z,5.00
2023-01-09T08:01:44.103Z,4.70
2023-01-09T08:04:13.593Z,5.30
2023-01-09T08:06:43.054Z,5.73
2023-01-09T08:09:15.211Z,5.23
2023-01-09T08:11:44.693Z,5.75
2023-01-09T08:14:14.126Z,5.73
2023-01-09T08:16:43.546Z,5.83
2023-01-09T08:19:13.148Z,6.10
2023-01-09T08:21:42.799Z,5.50
2023-01-09T08:24:15.231Z,5.60
2023-01-09T08:26:44.654Z,5.63
2023-01-09T08:29:14.172Z,5.27
2023-01-09T08:31:43.690Z,5.40
2023-01-09T08:34:13.197Z,5.83
2023-01-09T08:36:42.634Z,4.97
2023-01-09T08:39:12.095Z,4.97
2023-01-09T08:41:56.608Z,5.17
2023-01-09T08:44:38.588Z,4.67
2023-01-09T08:47:08.326Z,5.40
2023-01-09T08:49:39.340Z,4.73
2023-01-09T08:52:09.868Z,4.83
2023-01-09T08:54:40.057Z,4.77
2023-01-09T08:57:12.091Z,4.50
2023-01-09T08:59:41.493Z,3.80
2023-01-09T09:02:11.817Z,3.80
2023-01-09T09:04:41.321Z,4.37
2023-01-09T09:07:10.853Z,3.80
2023-01-09T09:09:40.240Z,3.53
2023-01-09T09:12:12.502Z,3.40
2023-01-09T09:14:54.443Z,2.80
2023-01-09T09:17:23.833Z,2.80
2023-01-09T09:19:53.304Z,2.50
2023-01-09T09:22:22.751Z,2.83
2023-01-09T09:24:52.156Z,2.40
2023-01-09T09:27:24.179Z,2.43
2023-01-09T09:29:53.609Z,1.83
2023-01-09T09:32:23.005Z,2.10
2023-01-09T09:34:52.411Z,2.70
2023-01-09T09:37:21.815Z,2.10
2023-01-09T09:39:51.224Z,2.67
2023-01-09T09:43:05.262Z,2.33
2023-01-09T09:45:44.671Z,2.07
2023-01-09T09:48:25.493Z,2.40
2023-01-09T09:51:10.210Z,2.40
2023-01-09T09:53:44.044Z,2.20
2023-01-09T09:56:15.779Z,2.17
2023-01-09T09:58:53.370Z,1.90
2023-01-09T10:01:27.421Z,1.73
2023-01-09T10:04:01.587Z,1.90
2023-01-09T10:06:34.181Z,1.70
2023-01-09T10:09:09.221Z,1.48
2023-01-09T10:11:45.646Z,1.90
2023-01-09T10:14:24.202Z,2.10
2023-01-09T10:17:20.082Z,2.03
2023-01-09T10:20:19.829Z,1.50
2023-01-09T10:23:01.889Z,1.30
2023-01-09T10:25:40.024Z,1.73
2023-01-09T10:28:31.907Z,2.03
2023-01-09T10:31:12.270Z,1.67
2023-01-09T10:33:56.303Z,1.50
2023-01-09T10:36:59.241Z,1.60
2023-01-09T10:39:36.730Z,1.30
2023-01-09T10:42:14.444Z,1.63
2023-01-09T10:44:53.321Z,1.70
2023-01-09T10:47:32.093Z,1.70
2023-01-09T10:50:02.805Z,2.43
2023-01-09T10:52:37.761Z,1.70
2023-01-09T10:55:19.732Z,2.07
2023-01-09T10:57:53.363Z,2.00
2023-01-09T11:00:25.715Z,1.40
2023-01-09T11:02:57.986Z,2.00
2023-01-09T11:05:32.733Z,1.40
2023-01-09T11:08:14.265Z,1.60
2023-01-09T11:10:49.727Z,1.40
2023-01-09T11:13:23.190Z,1.30
2023-01-09T11:16:04.543Z,1.50
2023-01-09T11:18:38.061Z,1.30
2023-01-09T11:21:30.384Z,1.20
2023-01-09T11:24:19.640Z,1.30
2023-01-09T11:26:49.402Z,1.63
2023-01-09T11:29:20.245Z,1.77
2023-01-09T11:31:54.892Z,1.10
2023-01-09T11:34:28.588Z,1.20
2023-01-09T11:37:06.534Z,1.47
2023-01-09T11:39:39.638Z,1.70
2023-01-09T11:42:20.379Z,1.40
2023-01-09T11:44:49.844Z,1.20
2023-01-09T11:47:37.147Z,1.40
2023-01-09T11:50:24.089Z,1.20
2023-01-09T11:53:16.125Z,1.30
2023-01-09T11:55:47.123Z,1.10
2023-01-09T11:58:18.719Z,1.07
2023-01-09T12:00:56.956Z,1.20
2023-01-09T12:03:40.812Z,1.07
2023-01-09T12:06:19.617Z,1.47
2023-01-09T12:08:58.578Z,1.10
2023-01-09T12:11:37.621Z,1.40
2023-01-09T12:14:34.936Z,1.27
2023-01-09T12:17:28.394Z,1.10
2023-01-09T12:20:13.923Z,1.00
2023-01-09T12:22:57.349Z,1.27
2023-01-09T12:25:40.187Z,1.20
2023-01-09T12:28:28.795Z,1.25
2023-01-09T12:31:10.769Z,1.10
2023-01-09T12:33:47.038Z,1.25
2023-01-09T12:36:25.722Z,1.50
2023-01-09T12:39:07.736Z,1.00
2023-01-09T12:42:00.320Z,0.93
2023-01-09T12:44:55.396Z,1.38
2023-01-09T12:47:48.112Z,1.30
2023-01-09T12:50:39.078Z,1.20
2023-01-09T12:53:19.747Z,1.10
2023-01-09T12:55:56.240Z,1.27
2023-01-09T12:58:34.821Z,1.00
2023-01-09T13:01:08.095Z,1.00
2023-01-09T13:03:42.037Z,1.00
2023-01-09T13:06:17.527Z,1.23
2023-01-09T13:08:50.500Z,1.40
2023-01-09T13:11:29.692Z,1.03
2023-01-09T13:14:04.115Z,1.00
2023-01-09T13:16:41.648Z,0.97
2023-01-09T13:19:20.863Z,1.07
2023-01-09T13:21:50.772Z,1.20
2023-01-09T13:24:25.521Z,0.93
2023-01-09T13:27:00.823Z,1.10
2023-01-09T13:29:34.419Z,1.37
2023-01-09T13:32:23.264Z,1.00
2023-01-09T13:34:57.494Z,1.03
2023-01-09T13:37:31.537Z,1.33
2023-01-09T13:40:03.452Z,1.30
2023-01-09T13:42:39.277Z,1.00
2023-01-09T13:45:23.374Z,0.90
2023-01-09T13:48:29.396Z,1.20
2023-01-09T13:51:28.736Z,1.00
2023-01-09T13:53:58.157Z,1.33
2023-01-09T13:56:27.546Z,1.20
2023-01-09T13:59:04.707Z,1.17
2023-01-09T14:01:47.722Z,1.00
2023-01-09T14:07:25.054Z,1.20
2023-01-09T14:09:58.971Z,1.20
2023-01-09T14:12:30.457Z,1.27
2023-01-09T14:15:04.746Z,1.30
2023-01-09T14:17:38.008Z,1.40
2023-01-09T14:20:10.949Z,1.73
2023-01-09T14:22:50.395Z,1.40
2023-01-09T14:25:28.816Z,1.40
2023-01-09T14:28:11.675Z,1.60
2023-01-09T14:31:08.697Z,1.20
2023-01-09T14:33:38.499Z,1.40
2023-01-09T14:36:14.904Z,1.30
2023-01-09T14:38:46.979Z,1.30
2023-01-09T14:41:48.488Z,1.40
2023-01-09T14:44:28.777Z,1.87
2023-01-09T14:47:06.275Z,1.40
2023-01-09T14:49:39.921Z,1.40
2023-01-09T14:52:18.246Z,1.20
2023-01-09T14:54:48.737Z,1.30
2023-01-09T14:57:29.487Z,1.17
2023-01-09T15:00:03.410Z,1.20
2023-01-09T15:02:37.858Z,1.20
2023-01-09T15:05:10.601Z,1.10
2023-01-09T15:10:19.938Z,1.20
2023-01-09T15:12:52.012Z,1.13
2023-01-09T15:15:23.949Z,1.42
2023-01-09T15:18:00.596Z,1.30
2023-01-09T15:20:34.364Z,1.30
2023-01-09T15:23:05.713Z,1.53
2023-01-09T15:25:39.656Z,1.40
2023-01-09T15:28:27.631Z,1.63
2023-01-09T15:31:02.956Z,1.60
2023-01-09T15:33:35.540Z,1.57
2023-01-09T15:36:09.589Z,2.08
2023-01-09T15:38:40.212Z,1.90
2023-01-09T15:41:12.939Z,2.00
2023-01-09T15:46:10.865Z,1.93
2023-01-09T15:48:43.298Z,1.90
2023-01-09T15:51:18.360Z,2.08
2023-01-09T15:53:50.664Z,2.10
2023-01-09T15:56:23.900Z,2.20
2023-01-09T15:58:54.214Z,2.00
2023-01-09T16:01:33.941Z,2.20
2023-01-09T16:04:11.981Z,2.23
2023-01-09T16:06:47.552Z,1.60
2023-01-09T16:09:19.129Z,1.70
2023-01-09T16:11:52.126Z,1.67
2023-01-09T16:14:24.947Z,1.33
2023-01-09T16:16:55.237Z,1.10
2023-01-09T16:19:49.678Z,1.17
2023-01-09T16:22:23.586Z,1.10
2023-01-09T16:24:54.831Z,1.30
2023-01-09T16:27:27.229Z,1.17
2023-01-09T16:42:35.955Z,1.20
2023-01-09T16:45:05.539Z,1.30
2023-01-09T16:47:34.981Z,1.30
2023-01-09T16:50:04.554Z,1.50
2023-01-09T16:52:34.045Z,1.90
2023-01-09T16:55:03.416Z,1.80
2023-01-09T16:57:37.126Z,1.80
2023-01-09T17:00:07.943Z,1.40
2023-01-09T17:02:38.396Z,1.47
2023-01-09T17:05:08.873Z,1.70
2023-01-09T17:07:38.558Z,1.93
2023-01-09T17:10:09.706Z,1.70
2023-01-09T17:12:42.762Z,2.10
2023-01-09T17:15:13.576Z,1.60
2023-01-09T17:17:43.075Z,3.77
2023-01-09T17:20:23.401Z,1.93
2023-01-09T17:22:52.857Z,1.63
2023-01-09T17:25:34.884Z,1.50
2023-01-09T17:28:21.206Z,1.80
2023-01-09T17:30:50.644Z,2.03
2023-01-09T17:33:21.527Z,1.60
2023-01-09T17:35:51.034Z,1.83
2023-01-09T17:38:20.438Z,1.60
2023-01-09T17:40:49.803Z,2.17
2023-01-09T17:43:21.779Z,1.60
2023-01-09T17:45:51.652Z,1.83
2023-01-09T17:48:23.653Z,1.73
2023-01-09T17:50:53.096Z,1.40
2023-01-09T17:53:22.788Z,1.50
2023-01-09T17:55:52.225Z,1.27
2023-01-09T17:58:31.763Z,1.50
2023-01-09T18:01:02.442Z,1.30
2023-01-09T18:03:34.504Z,1.30
2023-01-09T18:06:04.135Z,0.90
2023-01-09T18:08:33.591Z,1.30
2023-01-09T18:11:04.868Z,1.10
2023-01-09T18:13:37.140Z,1.10
2023-01-09T18:16:09.725Z,0.90
2023-01-09T18:18:40.178Z,1.15
2023-01-09T18:21:11.766Z,1.10
2023-01-09T18:23:41.133Z,1.03
2023-01-09T18:26:18.528Z,1.00
2023-01-09T18:28:51.751Z,1.30
2023-01-09T18:31:24.662Z,1.57
2023-01-09T18:33:56.669Z,1.70
2023-01-09T18:36:29.746Z,1.60
2023-01-09T18:39:00.551Z,1.73
2023-01-09T18:41:30.769Z,1.87
2023-01-09T18:44:03.829Z,1.70
2023-01-09T18:46:33.756Z,1.83
2023-01-09T18:49:05.067Z,2.10
2023-01-09T18:51:37.116Z,2.17
2023-01-09T18:54:08.318Z,2.40
2023-01-09T18:56:38.095Z,2.83
2023-01-09T18:59:12.374Z,3.17
2023-01-09T19:01:41.817Z,2.70
2023-01-09T19:04:11.332Z,2.07
2023-01-09T19:06:40.873Z,2.10
2023-01-09T19:09:10.300Z,2.67
2023-01-09T19:11:40.025Z,2.60
2023-01-09T19:14:12.097Z,3.63
2023-01-09T19:16:42.533Z,2.72
2023-01-09T19:19:11.995Z,3.00
2023-01-09T19:21:41.499Z,3.00
2023-01-09T19:24:11.153Z,3.27
2023-01-09T19:26:40.818Z,3.30
2023-01-09T19:29:15.288Z,3.33
2023-01-09T19:31:45.063Z,3.50
2023-01-09T19:34:15.156Z,2.90
2023-01-09T19:36:47.302Z,2.53
2023-01-09T19:39:17.510Z,1.88
2023-01-09T19:41:47.212Z,2.23
2023-01-09T19:44:20.912Z,2.60
2023-01-09T19:46:50.616Z,2.30
2023-01-09T19:49:22.240Z,2.57
2023-01-09T19:51:55.132Z,2.07
2023-01-09T19:56:53.985Z,2.10
2023-01-09T19:59:26.101Z,2.07
2023-01-09T20:01:55.636Z,3.22
2023-01-09T20:04:26.832Z,2.90
2023-01-09T20:06:56.234Z,2.13
2023-01-09T20:09:27.969Z,4.03
2023-01-09T20:11:57.378Z,4.10
2023-01-09T20:14:29.825Z,3.30
2023-01-09T20:17:04.173Z,3.72
2023-01-09T20:19:34.055Z,3.30
2023-01-09T20:22:03.711Z,3.83
2023-01-09T20:24:33.314Z,3.37
2023-01-09T20:27:02.741Z,3.63
2023-01-09T20:29:34.770Z,3.97
2023-01-09T20:32:06.198Z,4.63
2023-01-09T20:34:35.955Z,4.20
2023-01-09T20:37:05.443Z,4.13
2023-01-09T20:39:34.898Z,3.97
2023-01-09T20:42:04.445Z,4.53
2023-01-09T20:44:36.456Z,4.43
2023-01-09T20:47:06.193Z,4.18
2023-01-09T20:49:35.738Z,3.80
2023-01-09T20:52:05.113Z,3.93
2023-01-09T20:54:35.675Z,4.03
2023-01-09T20:57:05.195Z,4.00
2023-01-09T20:59:37.202Z,3.87
2023-01-09T21:02:06.925Z,4.13
2023-01-09T21:04:36.393Z,4.17
2023-01-09T21:07:05.879Z,5.43
2023-01-09T21:09:35.262Z,3.63
2023-01-09T21:12:24.587Z,4.50
2023-01-09T21:14:57.104Z,4.10
2023-01-09T21:17:28.232Z,4.60
2023-01-09T21:19:58.034Z,5.20
2023-01-09T21:22:27.458Z,4.20
2023-01-09T21:24:56.824Z,4.30
2023-01-09T21:27:26.530Z,4.57
2023-01-09T21:29:58.593Z,5.27
2023-01-09T21:32:28.148Z,4.28
2023-01-09T21:35:00.657Z,4.63
2023-01-09T21:37:31.801Z,4.50
2023-01-09T21:40:01.137Z,4.37
2023-01-09T21:42:43.234Z,4.77
2023-01-09T21:45:29.454Z,4.15
2023-01-09T21:47:58.866Z,4.30
2023-01-09T21:50:28.288Z,4.93
2023-01-09T21:52:57.702Z,5.10
2023-01-09T21:55:27.088Z,4.13
2023-01-09T21:57:57.914Z,3.63
2023-01-09T22:00:31.236Z,4.53
2023-01-09T22:03:01.282Z,4.83
2023-01-09T22:05:30.744Z,4.40
2023-01-09T22:08:00.161Z,4.30
2023-01-09T22:10:29.522Z,4.23
2023-01-09T22:13:11.456Z,4.60
2023-01-09T22:15:44.835Z,4.60
2023-01-09T22:18:14.240Z,4.73
2023-01-09T22:20:43.694Z,4.37
2023-01-09T22:23:13.123Z,5.57
2023-01-09T22:25:42.765Z,4.77
2023-01-09T22:28:12.768Z,5.20
2023-01-09T22:30:45.367Z,5.40
2023-01-09T22:33:14.832Z,6.15
2023-01-09T22:38:15.956Z,5.13
2023-01-09T22:40:45.396Z,4.77
2023-01-09T22:43:16.946Z,4.93
2023-01-09T22:45:48.943Z,5.67
2023-01-09T22:48:18.418Z,5.18
2023-01-09T22:50:47.850Z,4.87
2023-01-09T22:53:17.313Z,5.63
2023-01-09T22:55:46.877Z,5.63
2023-01-09T22:58:16.259Z,5.73
2023-01-09T23:00:45.614Z,4.97
2023-01-09T23:03:17.525Z,6.33
2023-01-09T23:05:46.915Z,3.95
2023-01-09T23:08:17.190Z,5.20
2023-01-09T23:10:46.520Z,4.73
2023-01-09T23:13:15.942Z,4.83
2023-01-09T23:15:45.405Z,5.13
2023-01-09T23:18:17.356Z,5.73
2023-01-09T23:20:53.301Z,6.10
2023-01-09T23:23:24.417Z,4.93
2023-01-09T23:25:54.876Z,5.10
2023-01-09T23:28:24.744Z,5.47
2023-01-09T23:30:54.485Z,5.27
2023-01-09T23:33:26.579Z,5.37
2023-01-09T23:35:56.035Z,6.03
2023-01-09T23:38:25.481Z,5.67
2023-01-09T23:40:58.771Z,4.80
2023-01-09T23:43:25.729Z,5.50
2023-01-09T23:45:55.144Z,6.13
2023-01-09T23:48:27.109Z,5.97
2023-01-09T23:50:57.308Z,6.38
2023-01-09T23:53:26.720Z,6.37
2023-01-09T23:55:57.338Z,5.63
2023-01-09T23:58:28.572Z,5.80
